Cape Magnolia — 3FGP2 — position and weather

sailwx.info

Track history (hours):
 
Tides and Currents Weather Stations Pressure Air Temp Water Temp Dewpoint Dewpoint Depression Visibility Wind Speed Wind Dir Waves Ship Positions

Cape Magnolia

Last reported at 2016-Apr-20 19:33 UTC. Time now 2016-May-01 02:17 UTC.
Position N 01°16' E 104°13'.
Warning: this ship's position is 10 days out of date.

Length 292 m; draft 18.3 m.

Type: Ship. MMSI: 357427000.

Date/timePositionNaut miles runAvg speedWind from/ knotsBaromVisibWave heightAir tempDewpointWater temp
2016-Apr-20 19:33N 01°16' E 104°13'1413.8
2016-Apr-20 18:33N 01°14' E 103°59'1313.2
2016-Apr-20 17:33N 01°09' E 103°47'1211.5
2016-Apr-20 16:33N 01°04' E 103°37'1313.2
2016-Apr-20 15:33N 01°11' E 103°25'4213.7
2016-Apr-20 12:29N 01°35' E 102°51'1814.0
2016-Apr-20 11:13N 01°43' E 102°35'914.2
2016-Apr-20 10:33N 01°47' E 102°27'1413.8
2016-Apr-20 09:31N 01°54' E 102°14'1313.5
2016-Apr-20 08:33N 02°00' E 102°03'  
Track history (hours):
 
Tides and Currents Weather Stations Pressure Air Temp Water Temp Dewpoint Dewpoint Depression Visibility Wind Speed Wind Dir Waves Ship Positions

Cape Magnolia

Last reported at 2016-Apr-20 19:33 UTC. Time now 2016-May-01 02:17 UTC.
Position N 01°16' E 104°13'.
Warning: this ship's position is 10 days out of date.

Length 292 m; draft 18.3 m.

Type: Ship. MMSI: 357427000.

Date/timePositionNaut miles runAvg speedWind from/ knotsBaromVisibWave heightAir tempDewpointWater temp
2016-Apr-20 19:33N 01°16' E 104°13'1413.8
2016-Apr-20 18:33N 01°14' E 103°59'1313.2
2016-Apr-20 17:33N 01°09' E 103°47'1211.5
2016-Apr-20 16:33N 01°04' E 103°37'1313.2
2016-Apr-20 15:33N 01°11' E 103°25'4213.7
2016-Apr-20 12:29N 01°35' E 102°51'1814.0
2016-Apr-20 11:13N 01°43' E 102°35'914.2
2016-Apr-20 10:33N 01°47' E 102°27'1413.8
2016-Apr-20 09:31N 01°54' E 102°14'1313.5
2016-Apr-20 08:33N 02°00' E 102°03'  

Dump ship's entire track history